Carmel Valley, CA

5:39 AM PDT on April 27, 2017 (GMT -0700)
Turtle Hill in Robles del Rio | | Change Station

Elev 354 ft 36.47 °N, 121.73 °W | Updated 19 seconds ago

Overcast
Overcast
53.1 °F
Feels Like 53.1 °F
N
0.0
Wind Variable Wind from SSW

Today
High -- | Low -- °F
--% Chance of Precip.
Yesterday
High -- | Low -- °F
Precip. -- in
Pressure 30.09 in
Visibility 10.0 miles
Clouds Mostly Cloudy 800 ft
Overcast 2200 ft
Dew Point 50 °F
Humidity 91%
Rainfall 0.02 in
Snow Depth Not available.
6:17 AM 7:51 PM
New Moon, 2% visible
METAR KMRY 271154Z AUTO 25005KT 10SM BKN008 OVC022 12/11 A3005 RMK AO2 SLP188 T01220106 10133 20117 50000
Pressure 30.09 in
Visibility 10.0 miles
Clouds Mostly Cloudy 800 ft
Overcast 2200 ft
Dew Point 50 °F
Humidity 91%
Rainfall 0.02 in
Snow Depth Not available.
6:17 AM 7:51 PM
New Moon, 2% visible
METAR KMRY 271154Z AUTO 25005KT 10SM BKN008 OVC022 12/11 A3005 RMK AO2 SLP188 T01220106 10133 20117 50000

Get Severe Weather Alerts

Thanks for signing up!

Be on the lookout for a verification email in your inbox.

You'll start receiving the daily forecast at 8 AM.

×

10-Day Weather Forecast

Almanac

Astronomy

Apr. 27, 2017 Rise Set
Actual Time
Civil Twilight
Nautical Twilight
Astronomical Twilight
Moon
Length of Visible Light
Length of Day
Tomorrow will be .
, % of the Moon is Illuminated

Today's Extremes

State Highs State Lows

Community

WunderPhotos

WunderBlog® & News

Nearby

Air Quality

  Air Quality AQ Index Pollutant
Not available.

Snow Depth

Station Depth Elevation

Earthquake Activity

City Distance Mag. Time & Date
Minimum magnitude displayed is 2.5.

Coastal Water Temperatures

Place Temperature

Stations

Nearby Weather Stations

Station Location Temp. Windchill Dew Point Humidity Wind Precip. Elev Updated Type
                   

Watches & Warnings

There are currently no watches in effect.